ADDS METAR Data INFO
IDs: Format: Raw Decoded Include TAF

Data at: 0022 UTC 15 Dec 2017

KAHN 142351Z 23003KT 10SM CLR 08/00 A2994 RMK AO2 SLP141 T00780000 10167 20072 51010
KAHN 142251Z 23003KT 10SM CLR 09/00 A2993 RMK AO2 SLP138 T00940000
KAHN 142151Z 26003KT 10SM CLR 13/M01 A2992 RMK AO2 SLP134 T01281006
KAHN 142051Z 27004KT 10SM CLR 14/M01 A2991 RMK AO2 SLP129 T01391006 53004
KAHN 141951Z VRB06KT 10SM CLR 14/M01 A2989 RMK AO2 SLP124 T01441011
KAHN 141851Z VRB06G14KT 10SM CLR 16/M01 A2989 RMK AO2 SLP122 T01611006
KAHN 141751Z VRB05KT 10SM CLR 16/M01 A2989 RMK AO2 SLP125 T01561006 10156 20011 58003
KAHN 141651Z 25004KT 10SM CLR 14/M01 A2991 RMK AO2 SLP130 T01391006
KAHN 141551Z 26004KT 10SM CLR 11/M01 A2991 RMK AO2 SLP134 T01111011
KAHN 141451Z VRB05KT 10SM CLR 08/M01 A2990 RMK AO2 SLP129 T00831011 51017
KAHN 141351Z VRB06KT 10SM CLR 05/M02 A2989 RMK AO2 SLP127 T00501017
KAHN 141251Z 25004KT 10SM CLR 02/M03 A2988 RMK AO2 SLP123 T00171028
KAHN 141151Z AUTO VRB03KT 10SM CLR 01/M03 A2985 RMK AO2 SLP114 T00111033 10017 20000 53009
KAHN 141051Z AUTO 24004KT 10SM CLR 00/M04 A2983 RMK AO2 SLP108 T00001039
KAHN 140951Z AUTO 25003KT 10SM CLR 01/M04 A2982 RMK AO2 SLP104 T00061044
KAHN 140851Z AUTO 24004KT 10SM CLR 01/M05 A2982 RMK AO2 SLP104 T00111050 56005
KAHN 140751Z AUTO 25004KT 10SM CLR 01/M06 A2983 RMK AO2 SLP106 T00111061
KAHN 140651Z AUTO 24004KT 10SM CLR 01/M06 A2982 RMK AO2 SLP104 T00111061
KAHN 140551Z AUTO 24004KT 10SM CLR 01/M07 A2984 RMK AO2 SLP109 T00111072 10056 20011 56004
KAHN 140451Z AUTO 25004KT 10SM CLR 01/M07 A2985 RMK AO2 SLP112 T00111072 401001028
KAHN 140351Z AUTO 23004KT 10SM CLR 01/M07 A2984 RMK AO2 SLP111 T00111072
KAHN 140251Z AUTO 25004KT 10SM CLR 03/M08 A2985 RMK AO2 SLP114 T00331083 55007
KAHN 140151Z AUTO 22004KT 10SM CLR 04/M09 A2984 RMK AO2 SLP111 T00391089
KAHN 140051Z 24003KT 10SM CLR 04/M09 A2987 RMK AO2 SLP120 T00441094
KAHN 132351Z 22003KT 10SM CLR 05/M10 A2987 RMK AO2 SLP122 T00501100 10100 20044 58012
KAHN 132251Z VRB03KT 10SM CLR 06/M11 A2988 RMK AO2 SLP126 T00611106
KAHN 132151Z VRB04KT 10SM CLR 08/M12 A2990 RMK AO2 SLP130 T00831122
KAHN 132051Z 22010KT 10SM CLR 09/M11 A2991 RMK AO2 SLP132 T00941111 56027
KAHN 131951Z VRB06G14KT 10SM CLR 10/M12 A2992 RMK AO2 SLP137 T01001117
KAHN 131851Z 25007KT 220V280 10SM CLR 10/M12 A2995 RMK AO2 SLP146 T01001117
KAHN 131751Z 24007KT 230V290 10SM CLR 09/M12 A2999 RMK AO2 SLP160 T00891122 10089 21028 58021
KAHN 131651Z VRB03KT 10SM CLR 08/M13 A3003 RMK AO2 SLP173 T00781133
KAHN 131551Z 30007KT 10SM CLR 06/M13 A3005 RMK AO2 SLP182 T00561133
KAHN 131451Z 28008KT 10SM CLR 03/M13 A3005 RMK AO2 SLP183 T00331128 51014
KAHN 131351Z 27006KT 10SM CLR 00/M12 A3005 RMK AO2 SLP181 T00001117
KAHN 131251Z VRB05KT 10SM CLR M02/M11 A3003 RMK AO2 SLP175 T10221111